createdAt,value
2023-02-06T00:01:38.127Z,19.10
2023-02-06T00:04:05.799Z,25.63
2023-02-06T00:06:33.642Z,21.30
2023-02-06T00:09:01.268Z,20.17
2023-02-06T00:11:30.396Z,23.07
2023-02-06T00:13:58.066Z,22.17
2023-02-06T00:16:27.084Z,22.57
2023-02-06T00:18:55.896Z,26.87
2023-02-06T00:21:25.853Z,24.17
2023-02-06T00:23:55.652Z,30.10
2023-02-06T00:26:23.876Z,17.47
2023-02-06T00:28:53.135Z,20.20
2023-02-06T00:31:20.826Z,27.70
2023-02-06T00:33:48.655Z,25.00
2023-02-06T00:36:16.239Z,23.10
2023-02-06T00:38:43.733Z,24.70
2023-02-06T00:41:11.377Z,31.70
2023-02-06T00:43:38.962Z,23.00
2023-02-06T00:46:07.897Z,21.40
2023-02-06T00:48:35.378Z,22.00
2023-02-06T00:51:04.080Z,25.63
2023-02-06T00:53:31.649Z,32.37
2023-02-06T00:55:59.156Z,24.67
2023-02-06T00:58:29.713Z,26.50
2023-02-06T01:00:57.192Z,16.90
2023-02-06T01:03:26.075Z,22.50
2023-02-06T01:05:53.759Z,17.90
2023-02-06T01:08:22.757Z,17.63
2023-02-06T01:10:50.337Z,29.90
2023-02-06T01:13:18.132Z,25.03
2023-02-06T01:15:46.239Z,29.83
2023-02-06T01:18:13.965Z,27.73
2023-02-06T01:20:43.098Z,23.97
2023-02-06T01:23:10.724Z,26.70
2023-02-06T01:25:38.480Z,25.97
2023-02-06T01:28:06.050Z,24.70
2023-02-06T01:30:33.650Z,33.00
2023-02-06T01:33:01.179Z,23.10
2023-02-06T01:35:29.589Z,25.07
2023-02-06T01:37:58.472Z,25.47
2023-02-06T01:40:26.030Z,25.00
2023-02-06T01:42:53.562Z,27.17
2023-02-06T01:45:42.071Z,23.97
2023-02-06T01:48:12.614Z,19.40
2023-02-06T01:50:44.301Z,19.07
2023-02-06T01:53:15.417Z,24.20
2023-02-06T01:55:45.277Z,19.73
2023-02-06T01:58:18.162Z,14.80
2023-02-06T02:00:46.362Z,13.90
2023-02-06T02:03:14.430Z,17.43
2023-02-06T02:05:44.444Z,21.00
2023-02-06T02:08:19.504Z,20.83
2023-02-06T02:10:48.125Z,23.10
2023-02-06T02:13:16.585Z,19.70
2023-02-06T02:15:53.495Z,16.37
2023-02-06T02:18:39.017Z,19.50
2023-02-06T02:21:40.590Z,16.53
2023-02-06T02:24:15.376Z,17.47
2023-02-06T02:27:23.244Z,18.53
2023-02-06T02:30:24.385Z,22.33
2023-02-06T02:33:20.296Z,24.27
2023-02-06T02:35:54.764Z,18.37
2023-02-06T02:38:37.318Z,19.47
2023-02-06T02:41:10.948Z,15.17
2023-02-06T02:43:44.933Z,17.93
2023-02-06T02:46:18.833Z,18.60
2023-02-06T02:48:49.939Z,19.13
2023-02-06T02:51:20.096Z,19.60
2023-02-06T02:53:47.815Z,16.97
2023-02-06T02:56:18.758Z,19.20
2023-02-06T02:58:51.848Z,15.70
2023-02-06T03:01:23.880Z,17.43
2023-02-06T03:03:55.464Z,14.27
2023-02-06T03:06:38.902Z,14.47
2023-02-06T03:09:12.683Z,17.27
2023-02-06T03:11:45.266Z,13.80
2023-02-06T03:14:20.670Z,15.70
2023-02-06T03:16:53.413Z,17.80
2023-02-06T03:19:25.927Z,14.70
2023-02-06T03:21:54.860Z,13.10
2023-02-06T03:24:27.313Z,13.97
2023-02-06T03:26:59.968Z,14.47
2023-02-06T03:29:30.128Z,21.63
2023-02-06T03:32:02.981Z,15.00
2023-02-06T03:34:39.313Z,14.53
2023-02-06T03:37:09.088Z,15.03
2023-02-06T03:39:37.150Z,14.77
2023-02-06T03:42:06.535Z,13.40
2023-02-06T03:44:37.226Z,20.37
2023-02-06T03:47:08.608Z,19.97
2023-02-06T03:49:40.589Z,12.63
2023-02-06T03:52:13.586Z,11.83
2023-02-06T03:54:46.012Z,12.07
2023-02-06T03:57:19.225Z,17.17
2023-02-06T03:59:46.881Z,19.13
2023-02-06T04:02:16.315Z,18.33
2023-02-06T04:04:45.850Z,15.80
2023-02-06T04:07:19.638Z,14.27
2023-02-06T04:09:47.227Z,13.93
2023-02-06T04:12:15.304Z,14.03
2023-02-06T04:14:42.877Z,13.13
2023-02-06T04:17:11.542Z,20.27
2023-02-06T04:19:39.660Z,20.43
2023-02-06T04:22:08.904Z,17.33
2023-02-06T04:24:40.119Z,22.67
2023-02-06T04:27:08.175Z,15.83
2023-02-06T04:29:35.823Z,17.90
2023-02-06T04:32:03.450Z,10.13
2023-02-06T04:34:31.571Z,14.90
2023-02-06T04:36:59.541Z,11.60
2023-02-06T04:39:27.395Z,13.60
2023-02-06T04:41:57.371Z,17.83
2023-02-06T04:44:25.517Z,18.53
2023-02-06T04:46:53.069Z,14.80
2023-02-06T04:49:20.586Z,22.63
2023-02-06T04:51:48.223Z,13.87
2023-02-06T04:54:17.312Z,29.80
2023-02-06T04:56:44.980Z,31.23
2023-02-06T04:59:14.235Z,16.47
2023-02-06T05:01:41.790Z,12.00
2023-02-06T05:04:09.585Z,13.47
2023-02-06T05:06:37.330Z,10.40
2023-02-06T05:09:05.536Z,8.87
2023-02-06T05:11:33.106Z,18.03
2023-02-06T05:14:00.673Z,18.23
2023-02-06T05:16:29.554Z,11.20
2023-02-06T05:18:57.768Z,8.13
2023-02-06T05:21:26.250Z,16.53
2023-02-06T05:23:55.035Z,15.30
2023-02-06T05:26:22.620Z,18.20
2023-02-06T05:28:50.141Z,23.70
2023-02-06T05:31:20.090Z,12.87
2023-02-06T05:33:52.526Z,7.90
2023-02-06T05:36:21.604Z,9.83
2023-02-06T05:38:49.600Z,9.10
2023-02-06T05:41:17.528Z,11.13
2023-02-06T05:43:45.017Z,13.00
2023-02-06T05:46:15.718Z,27.00
2023-02-06T05:48:43.430Z,16.00
2023-02-06T05:51:12.902Z,16.40
2023-02-06T05:53:40.981Z,9.83
2023-02-06T05:56:08.522Z,14.73
2023-02-06T05:58:39.524Z,24.70
2023-02-06T06:01:07.190Z,13.07
2023-02-06T06:03:34.798Z,14.17
2023-02-06T06:06:02.457Z,7.33
2023-02-06T06:08:31.343Z,14.63
2023-02-06T06:11:04.158Z,12.93
2023-02-06T06:13:32.635Z,17.50
2023-02-06T06:16:00.181Z,5.43
2023-02-06T06:18:29.169Z,15.90
2023-02-06T06:20:57.116Z,12.97
2023-02-06T06:23:24.629Z,7.73
2023-02-06T06:25:53.957Z,10.53
2023-02-06T06:28:21.536Z,13.13
2023-02-06T06:30:49.126Z,9.77
2023-02-06T06:33:17.751Z,10.97
2023-02-06T06:35:45.301Z,6.70
2023-02-06T06:38:12.782Z,13.27
2023-02-06T06:40:42.034Z,19.80
2023-02-06T06:43:10.876Z,11.03
2023-02-06T06:45:38.901Z,11.30
2023-02-06T06:48:06.743Z,11.40
2023-02-06T06:50:34.239Z,6.83
2023-02-06T06:53:02.028Z,10.77
2023-02-06T06:55:29.568Z,9.50
2023-02-06T06:57:57.038Z,7.77
2023-02-06T07:00:26.282Z,7.70
2023-02-06T07:02:54.160Z,9.80
2023-02-06T07:05:21.649Z,11.30
2023-02-06T07:07:49.187Z,11.00
2023-02-06T07:10:18.000Z,8.67
2023-02-06T07:12:45.616Z,11.33
2023-02-06T07:15:13.061Z,8.30
2023-02-06T07:17:42.329Z,7.80
2023-02-06T07:20:11.287Z,10.00
2023-02-06T07:22:39.118Z,10.93
2023-02-06T07:25:07.594Z,7.97
2023-02-06T07:27:35.086Z,7.50
2023-02-06T07:30:04.015Z,13.90
2023-02-06T07:32:35.675Z,10.57
2023-02-06T07:35:05.417Z,10.13
2023-02-06T07:37:32.919Z,14.33
2023-02-06T07:40:00.581Z,20.93
2023-02-06T07:42:28.062Z,10.13
2023-02-06T07:45:00.210Z,20.50
2023-02-06T07:47:27.732Z,9.50
2023-02-06T07:49:55.212Z,9.70
2023-02-06T07:52:24.057Z,17.43
2023-02-06T07:54:51.551Z,13.30
2023-02-06T07:57:19.950Z,8.13
2023-02-06T07:59:47.482Z,11.27
2023-02-06T08:02:15.017Z,27.67
2023-02-06T08:04:43.074Z,11.23
2023-02-06T08:07:14.786Z,17.17
2023-02-06T08:09:43.811Z,9.10
2023-02-06T08:12:12.049Z,10.77
2023-02-06T08:14:40.003Z,19.70
2023-02-06T08:17:07.878Z,13.03
2023-02-06T08:19:35.333Z,15.37
2023-02-06T08:22:02.789Z,9.30
2023-02-06T08:24:30.364Z,14.20
2023-02-06T08:26:59.214Z,12.40
2023-02-06T08:29:26.972Z,18.50
2023-02-06T08:31:54.501Z,15.80
2023-02-06T08:34:22.012Z,14.40
2023-02-06T08:36:50.144Z,13.87
2023-02-06T08:39:19.160Z,23.57
2023-02-06T08:41:46.664Z,13.53
2023-02-06T08:44:18.340Z,12.50
2023-02-06T08:46:47.788Z,17.93
2023-02-06T08:49:17.573Z,11.03
2023-02-06T08:51:46.162Z,17.87
2023-02-06T08:54:15.917Z,18.43
2023-02-06T08:56:43.564Z,12.43
2023-02-06T08:59:13.178Z,14.47
2023-02-06T09:01:42.620Z,21.87
2023-02-06T09:04:11.780Z,33.73
2023-02-06T09:06:41.613Z,16.40
2023-02-06T09:09:10.656Z,10.33
2023-02-06T09:11:39.067Z,13.03
2023-02-06T09:14:07.892Z,11.63
2023-02-06T09:16:37.594Z,9.30
2023-02-06T09:19:06.734Z,10.93
2023-02-06T09:21:35.812Z,12.70
2023-02-06T09:24:05.125Z,9.50
2023-02-06T09:26:37.573Z,10.73
2023-02-06T09:29:09.407Z,11.40
2023-02-06T09:31:38.965Z,7.03
2023-02-06T09:34:09.328Z,12.90
2023-02-06T09:36:37.563Z,15.67
2023-02-06T09:39:07.286Z,12.43
2023-02-06T09:41:40.332Z,11.50
2023-02-06T09:44:14.504Z,11.80
2023-02-06T09:46:47.572Z,12.53
2023-02-06T09:49:21.373Z,17.57
2023-02-06T09:52:07.856Z,14.10
2023-02-06T09:54:44.508Z,10.77
2023-02-06T09:57:16.318Z,12.60
2023-02-06T09:59:48.447Z,13.03
2023-02-06T10:02:33.944Z,9.70
2023-02-06T10:05:10.627Z,14.83
2023-02-06T10:07:53.495Z,10.90
2023-02-06T10:10:26.100Z,12.17
2023-02-06T10:13:01.731Z,12.60
2023-02-06T10:15:33.651Z,20.63
2023-02-06T10:18:07.944Z,14.80
2023-02-06T10:20:41.640Z,18.43
2023-02-06T10:23:16.476Z,10.33
2023-02-06T10:25:49.736Z,14.50
2023-02-06T10:28:25.062Z,8.77
2023-02-06T10:31:10.453Z,17.33
2023-02-06T10:33:46.438Z,14.93
2023-02-06T10:36:30.886Z,7.93
2023-02-06T10:39:18.064Z,15.20
2023-02-06T10:41:55.507Z,18.77
2023-02-06T10:44:28.299Z,12.33
2023-02-06T10:46:57.497Z,10.40
2023-02-06T10:49:30.363Z,12.07
2023-02-06T10:52:02.309Z,12.47
2023-02-06T10:54:35.544Z,7.70
2023-02-06T10:57:03.807Z,14.70
2023-02-06T10:59:35.316Z,15.43
2023-02-06T11:02:19.946Z,7.70
2023-02-06T11:04:54.208Z,7.40
2023-02-06T11:07:29.163Z,11.17
2023-02-06T11:09:56.934Z,13.50
2023-02-06T11:12:33.319Z,9.33
2023-02-06T11:15:05.079Z,22.93
2023-02-06T11:17:32.819Z,14.43
2023-02-06T11:20:15.874Z,9.77
2023-02-06T11:22:52.772Z,10.00
2023-02-06T11:25:25.923Z,8.23
2023-02-06T11:27:53.794Z,8.30
2023-02-06T11:30:30.937Z,10.43
2023-02-06T11:33:04.633Z,11.60
2023-02-06T11:35:35.932Z,11.90
2023-02-06T11:38:16.324Z,8.80
2023-02-06T11:40:44.762Z,13.80
2023-02-06T11:43:20.835Z,13.23
2023-02-06T11:45:52.094Z,25.33
2023-02-06T11:48:36.288Z,9.70
2023-02-06T11:51:04.903Z,11.87
2023-02-06T11:53:34.283Z,17.03
2023-02-06T11:56:05.559Z,13.47
2023-02-06T11:58:33.915Z,10.77
2023-02-06T12:01:05.147Z,7.30
2023-02-06T12:03:37.017Z,10.20
2023-02-06T12:06:10.819Z,6.47
2023-02-06T12:08:47.518Z,12.47
2023-02-06T12:11:22.783Z,10.37
2023-02-06T12:13:55.638Z,11.50
2023-02-06T12:16:26.000Z,12.30
2023-02-06T12:18:57.230Z,9.33
2023-02-06T12:21:35.784Z,11.97
2023-02-06T12:24:15.347Z,9.73
2023-02-06T12:26:43.878Z,13.37
2023-02-06T12:29:18.470Z,13.33
2023-02-06T12:31:52.844Z,9.93
2023-02-06T12:34:28.170Z,7.33
2023-02-06T12:37:10.584Z,8.23
2023-02-06T12:39:39.457Z,7.93
2023-02-06T12:42:21.016Z,13.20
2023-02-06T12:44:55.016Z,14.63
2023-02-06T12:47:30.086Z,12.13
2023-02-06T12:50:03.356Z,11.23
2023-02-06T12:52:38.637Z,9.33
2023-02-06T12:55:17.102Z,12.80
2023-02-06T12:57:45.338Z,6.40
2023-02-06T13:00:55.001Z,8.10
2023-02-06T13:03:27.519Z,7.27
2023-02-06T13:06:01.977Z,13.73
2023-02-06T13:08:39.899Z,12.80
2023-02-06T13:11:14.946Z,11.60
2023-02-06T13:13:43.306Z,12.93
2023-02-06T13:16:11.246Z,12.47
2023-02-06T13:18:52.788Z,11.27
2023-02-06T13:21:24.906Z,7.93
2023-02-06T13:24:13.273Z,11.00
2023-02-06T13:27:10.233Z,12.10
2023-02-06T13:29:38.687Z,14.43
2023-02-06T13:32:53.203Z,11.80
2023-02-06T13:35:27.652Z,13.17
2023-02-06T13:38:36.884Z,14.37
2023-02-06T13:41:28.892Z,10.27
2023-02-06T13:44:00.420Z,9.90
2023-02-06T13:46:57.601Z,8.73
2023-02-06T13:50:02.562Z,7.80
2023-02-06T13:52:38.594Z,16.50
2023-02-06T13:55:20.982Z,10.90
2023-02-06T13:58:12.015Z,10.17
2023-02-06T14:00:44.330Z,11.23
2023-02-06T14:03:17.382Z,8.43
2023-02-06T14:05:52.706Z,11.30
2023-02-06T14:08:25.480Z,6.97
2023-02-06T14:11:27.088Z,10.37
2023-02-06T14:14:17.607Z,10.40
2023-02-06T14:16:54.074Z,7.50
2023-02-06T14:19:32.916Z,8.53
2023-02-06T14:22:11.173Z,7.63
2023-02-06T14:24:54.333Z,10.50
2023-02-06T14:27:34.802Z,5.17
2023-02-06T14:30:15.045Z,9.40
2023-02-06T14:32:55.612Z,7.13
2023-02-06T14:35:35.499Z,8.63
2023-02-06T14:38:38.556Z,9.93
2023-02-06T14:41:06.441Z,9.97
2023-02-06T14:43:38.514Z,5.13
2023-02-06T14:46:11.558Z,8.40
2023-02-06T14:48:46.787Z,4.60
2023-02-06T14:51:25.159Z,11.50
2023-02-06T14:53:55.288Z,6.90
2023-02-06T14:56:28.720Z,6.03
2023-02-06T14:58:56.428Z,6.83
2023-02-06T15:01:27.587Z,4.63
2023-02-06T15:04:11.315Z,4.47
2023-02-06T15:06:40.421Z,4.00
2023-02-06T15:09:09.377Z,9.23
2023-02-06T15:11:36.843Z,4.50
2023-02-06T15:14:17.378Z,5.47
2023-02-06T15:16:49.104Z,4.40
2023-02-06T15:19:22.174Z,5.40
2023-02-06T15:21:50.675Z,7.10
2023-02-06T15:24:34.206Z,8.00
2023-02-06T15:27:09.945Z,4.43
2023-02-06T15:29:38.184Z,8.60
2023-02-06T15:32:07.423Z,4.43
2023-02-06T15:34:36.512Z,7.87
2023-02-06T15:37:22.986Z,9.33
2023-02-06T15:39:51.271Z,4.50
2023-02-06T15:42:20.836Z,5.97
2023-02-06T15:44:50.428Z,5.83
2023-02-06T15:47:19.909Z,3.17
2023-02-06T15:49:51.376Z,6.40
2023-02-06T15:52:34.640Z,3.70
2023-02-06T15:55:02.594Z,4.70
2023-02-06T15:57:33.461Z,6.93
2023-02-06T16:00:01.793Z,9.03
2023-02-06T16:02:41.345Z,5.23
2023-02-06T16:05:24.083Z,5.50
2023-02-06T16:07:51.695Z,6.87
2023-02-06T16:10:23.502Z,4.70
2023-02-06T16:12:52.108Z,5.90
2023-02-06T16:15:29.568Z,3.50
2023-02-06T16:17:58.585Z,6.33
2023-02-06T16:20:36.583Z,4.00
2023-02-06T16:23:21.685Z,4.43
2023-02-06T16:25:59.819Z,13.27
2023-02-06T16:28:28.194Z,6.83
2023-02-06T16:30:57.745Z,5.00
2023-02-06T16:33:35.151Z,10.10
2023-02-06T16:36:04.351Z,4.00
2023-02-06T16:38:32.032Z,5.83
2023-02-06T16:40:59.945Z,9.00
2023-02-06T16:43:28.674Z,4.03
2023-02-06T16:45:56.268Z,5.77
2023-02-06T16:48:23.774Z,3.03
2023-02-06T16:50:51.280Z,4.00
2023-02-06T16:53:24.181Z,3.53
2023-02-06T16:55:52.836Z,7.90
2023-02-06T16:58:22.398Z,3.60
2023-02-06T17:00:50.370Z,4.30
2023-02-06T17:03:18.719Z,6.97
2023-02-06T17:05:48.026Z,6.57
2023-02-06T17:08:18.159Z,4.40
2023-02-06T17:10:48.269Z,4.20
2023-02-06T17:13:17.044Z,3.20
2023-02-06T17:15:47.001Z,4.47
2023-02-06T17:18:16.028Z,6.33
2023-02-06T17:20:46.080Z,3.70
2023-02-06T17:23:14.279Z,3.50
2023-02-06T17:25:43.830Z,3.70
2023-02-06T17:28:15.643Z,5.53
2023-02-06T17:30:43.974Z,7.53
2023-02-06T17:33:11.535Z,6.70
2023-02-06T17:35:39.480Z,16.53
2023-02-06T17:38:08.716Z,4.13
2023-02-06T17:40:38.266Z,4.20
2023-02-06T17:43:07.042Z,8.23
2023-02-06T17:45:38.922Z,3.80
2023-02-06T17:48:07.326Z,6.00
2023-02-06T17:50:37.376Z,5.43
2023-02-06T17:53:06.080Z,8.10
2023-02-06T17:55:35.662Z,4.63
2023-02-06T17:58:03.699Z,10.03
2023-02-06T18:00:31.240Z,5.67
2023-02-06T18:03:00.931Z,5.93
2023-02-06T18:05:28.866Z,7.27
2023-02-06T18:07:56.489Z,7.33
2023-02-06T18:10:26.098Z,7.83
2023-02-06T18:12:53.842Z,7.13
2023-02-06T18:15:21.410Z,4.90
2023-02-06T18:17:49.139Z,9.63
2023-02-06T18:20:18.625Z,9.20
2023-02-06T18:22:47.170Z,7.60
2023-02-06T18:25:15.957Z,7.20
2023-02-06T18:27:45.422Z,13.70
2023-02-06T18:30:14.941Z,7.03
2023-02-06T18:32:42.459Z,8.37
2023-02-06T18:35:10.703Z,8.20
2023-02-06T18:37:39.667Z,6.77
2023-02-06T18:40:07.701Z,9.87
2023-02-06T18:42:53.930Z,12.60
2023-02-06T18:45:22.856Z,9.70
2023-02-06T18:47:52.075Z,9.10
2023-02-06T18:50:21.767Z,10.47
2023-02-06T18:52:51.640Z,6.67
2023-02-06T18:55:19.613Z,10.10
2023-02-06T18:57:47.483Z,6.97
2023-02-06T19:00:17.848Z,9.03
2023-02-06T19:02:45.341Z,6.73
2023-02-06T19:05:12.823Z,8.43
2023-02-06T19:07:40.441Z,13.47
2023-02-06T19:10:12.857Z,8.80
2023-02-06T19:12:41.358Z,8.80
2023-02-06T19:15:10.121Z,7.40
2023-02-06T19:17:38.392Z,10.87
2023-02-06T19:20:07.776Z,15.70
2023-02-06T19:22:35.935Z,10.00
2023-02-06T19:25:10.925Z,7.60
2023-02-06T19:27:40.954Z,10.63
2023-02-06T19:30:10.060Z,8.20
2023-02-06T19:32:37.729Z,11.90
2023-02-06T19:35:05.873Z,8.73
2023-02-06T19:37:33.365Z,14.00
2023-02-06T19:40:01.079Z,8.07
2023-02-06T19:42:28.653Z,9.47
2023-02-06T19:44:57.482Z,10.30
2023-02-06T19:47:25.076Z,7.07
2023-02-06T19:49:53.386Z,9.03
2023-02-06T19:52:21.235Z,8.90
2023-02-06T19:54:48.726Z,6.87
2023-02-06T19:57:19.213Z,12.13
2023-02-06T19:59:46.678Z,7.20
2023-02-06T20:02:16.462Z,10.03
2023-02-06T20:04:45.332Z,8.13
2023-02-06T20:07:13.039Z,11.00
2023-02-06T20:09:41.925Z,10.13
2023-02-06T20:12:09.907Z,9.20
2023-02-06T20:14:37.368Z,5.83
2023-02-06T20:17:05.521Z,5.80
2023-02-06T20:19:34.372Z,8.40
2023-02-06T20:22:02.498Z,14.00
2023-02-06T20:24:31.862Z,8.73
2023-02-06T20:27:01.575Z,12.93
2023-02-06T20:29:31.340Z,10.30
2023-02-06T20:32:00.204Z,11.57
2023-02-06T20:34:28.559Z,9.87
2023-02-06T20:36:57.458Z,15.10
2023-02-06T20:39:26.221Z,11.80
2023-02-06T20:41:54.435Z,13.20
2023-02-06T20:44:22.348Z,10.40
2023-02-06T20:46:50.109Z,11.53
2023-02-06T20:49:19.162Z,29.43
2023-02-06T20:51:46.788Z,10.00
2023-02-06T20:54:16.239Z,9.70
2023-02-06T20:56:43.802Z,6.03
2023-02-06T20:59:13.394Z,11.50
2023-02-06T21:01:42.838Z,12.30
2023-02-06T21:04:12.488Z,13.23
2023-02-06T21:06:40.770Z,6.53
2023-02-06T21:09:09.941Z,8.60
2023-02-06T21:11:41.614Z,8.73
2023-02-06T21:14:09.994Z,7.20
2023-02-06T21:16:39.012Z,6.27
2023-02-06T21:19:09.265Z,10.17
2023-02-06T21:21:38.014Z,8.63
2023-02-06T21:24:06.269Z,9.30
2023-02-06T21:26:34.668Z,6.70
2023-02-06T21:29:04.599Z,13.97
2023-02-06T21:31:36.821Z,10.80
2023-02-06T21:34:08.193Z,10.80
2023-02-06T21:36:37.717Z,17.47
2023-02-06T21:39:05.827Z,17.70
2023-02-06T21:41:33.769Z,15.33
2023-02-06T21:44:02.828Z,9.90
2023-02-06T21:46:31.171Z,9.90
2023-02-06T21:48:59.864Z,10.80
2023-02-06T21:51:27.586Z,11.03
2023-02-06T21:53:56.328Z,13.00
2023-02-06T21:56:26.372Z,13.30
2023-02-06T21:58:54.544Z,12.57
2023-02-06T22:01:26.021Z,11.57
2023-02-06T22:03:54.458Z,11.70
2023-02-06T22:06:21.993Z,11.87
2023-02-06T22:08:51.702Z,13.57
2023-02-06T22:11:22.923Z,17.43
2023-02-06T22:13:52.633Z,16.90
2023-02-06T22:16:22.124Z,8.80
2023-02-06T22:18:51.739Z,9.97
2023-02-06T22:21:21.446Z,18.20
2023-02-06T22:23:50.544Z,7.80
2023-02-06T22:26:20.393Z,12.00
2023-02-06T22:28:48.637Z,10.40
2023-02-06T22:31:19.049Z,13.57
2023-02-06T22:33:47.223Z,9.80
2023-02-06T22:36:17.997Z,8.10
2023-02-06T22:38:47.391Z,11.20
2023-02-06T22:41:17.632Z,10.10
2023-02-06T22:43:46.975Z,7.63
2023-02-06T22:46:20.227Z,8.30
2023-02-06T22:48:48.080Z,11.20
2023-02-06T22:51:17.326Z,6.27
2023-02-06T22:53:45.241Z,12.57
2023-02-06T22:56:29.550Z,9.13
2023-02-06T22:58:58.920Z,12.67
2023-02-06T23:01:30.660Z,13.90
2023-02-06T23:03:58.863Z,15.83
2023-02-06T23:06:29.053Z,7.57
2023-02-06T23:08:58.283Z,9.57
2023-02-06T23:11:26.216Z,8.67
2023-02-06T23:13:55.857Z,10.20
2023-02-06T23:16:24.006Z,10.93
2023-02-06T23:18:52.407Z,8.47
2023-02-06T23:21:21.745Z,11.23
2023-02-06T23:23:51.252Z,8.60
2023-02-06T23:26:20.760Z,8.70
2023-02-06T23:28:48.399Z,8.20
2023-02-06T23:31:16.559Z,12.97
2023-02-06T23:33:44.131Z,9.20
2023-02-06T23:36:15.153Z,9.33
2023-02-06T23:38:44.044Z,6.80
2023-02-06T23:41:14.744Z,10.93
2023-02-06T23:43:42.815Z,9.53
2023-02-06T23:46:12.492Z,9.17
2023-02-06T23:48:40.308Z,10.70
2023-02-06T23:51:08.524Z,8.53
2023-02-06T23:53:36.173Z,9.57
2023-02-06T23:56:13.518Z,12.60
2023-02-06T23:58:41.262Z,10.80
